sensor_id;sensor_type;location;lat;lon;timestamp;pressure;altitude;pressure_sealevel;temperature;humidity
28310;BME280;15571;50.974;13.936;2023-02-27T00:01:23;101027.28;;;-1.03;100.00
28310;BME280;15571;50.974;13.936;2023-02-27T00:04:26;101031.53;;;-1.04;100.00
28310;BME280;15571;50.974;13.936;2023-02-27T00:07:28;101030.47;;;-1.07;100.00
28310;BME280;15571;50.974;13.936;2023-02-27T00:10:30;101035.59;;;-1.07;100.00
28310;BME280;15571;50.974;13.936;2023-02-27T00:13:33;101036.44;;;-1.08;100.00
28310;BME280;15571;50.974;13.936;2023-02-27T00:16:35;101038.03;;;-1.11;100.00
28310;BME280;15571;50.974;13.936;2023-02-27T00:19:38;101033.75;;;-1.10;100.00
28310;BME280;15571;50.974;13.936;2023-02-27T00:22:41;101036.19;;;-1.13;100.00
28310;BME280;15571;50.974;13.936;2023-02-27T00:25:46;101033.50;;;-1.15;100.00
28310;BME280;15571;50.974;13.936;2023-02-27T00:28:49;101036.06;;;-1.15;100.00
28310;BME280;15571;50.974;13.936;2023-02-27T00:31:51;101041.13;;;-1.16;100.00
28310;BME280;15571;50.974;13.936;2023-02-27T00:34:54;101039.53;;;-1.14;100.00
28310;BME280;15571;50.974;13.936;2023-02-27T00:37:56;101044.50;;;-1.17;100.00
28310;BME280;15571;50.974;13.936;2023-02-27T00:40:58;101045.22;;;-1.20;100.00
28310;BME280;15571;50.974;13.936;2023-02-27T00:44:00;101041.69;;;-1.22;100.00
28310;BME280;15571;50.974;13.936;2023-02-27T00:47:08;101039.91;;;-1.23;100.00
28310;BME280;15571;50.974;13.936;2023-02-27T00:50:15;101043.19;;;-1.26;100.00
28310;BME280;15571;50.974;13.936;2023-02-27T00:53:21;101041.34;;;-1.28;100.00
28310;BME280;15571;50.974;13.936;2023-02-27T00:56:23;101044.72;;;-1.29;100.00
28310;BME280;15571;50.974;13.936;2023-02-27T00:59:25;101044.63;;;-1.31;100.00
28310;BME280;15571;50.974;13.936;2023-02-27T01:02:27;101047.03;;;-1.34;100.00
28310;BME280;15571;50.974;13.936;2023-02-27T01:05:31;101040.00;;;-1.36;100.00
28310;BME280;15571;50.974;13.936;2023-02-27T01:08:34;101043.22;;;-1.41;100.00
28310;BME280;15571;50.974;13.936;2023-02-27T01:11:38;101038.88;;;-1.42;100.00
28310;BME280;15571;50.974;13.936;2023-02-27T01:14:40;101039.75;;;-1.41;100.00
28310;BME280;15571;50.974;13.936;2023-02-27T01:17:45;101037.13;;;-1.43;100.00
28310;BME280;15571;50.974;13.936;2023-02-27T01:20:52;101034.81;;;-1.53;100.00
28310;BME280;15571;50.974;13.936;2023-02-27T01:23:56;101032.78;;;-1.59;100.00
28310;BME280;15571;50.974;13.936;2023-02-27T01:26:58;101038.38;;;-1.66;100.00
28310;BME280;15571;50.974;13.936;2023-02-27T01:30:00;101032.66;;;-1.77;100.00
28310;BME280;15571;50.974;13.936;2023-02-27T01:33:01;101034.03;;;-1.82;100.00
28310;BME280;15571;50.974;13.936;2023-02-27T01:36:05;101033.06;;;-1.84;100.00
28310;BME280;15571;50.974;13.936;2023-02-27T01:39:07;101033.97;;;-1.83;100.00
28310;BME280;15571;50.974;13.936;2023-02-27T01:42:14;101040.97;;;-1.81;100.00
28310;BME280;15571;50.974;13.936;2023-02-27T01:45:24;101038.56;;;-1.78;100.00
28310;BME280;15571;50.974;13.936;2023-02-27T01:48:28;101038.72;;;-1.75;100.00
28310;BME280;15571;50.974;13.936;2023-02-27T01:51:39;101044.84;;;-1.73;100.00
28310;BME280;15571;50.974;13.936;2023-02-27T01:54:42;101049.25;;;-1.70;100.00
28310;BME280;15571;50.974;13.936;2023-02-27T01:57:44;101049.19;;;-1.72;100.00
28310;BME280;15571;50.974;13.936;2023-02-27T02:00:49;101048.47;;;-1.69;100.00
28310;BME280;15571;50.974;13.936;2023-02-27T02:03:55;101048.66;;;-1.66;100.00
28310;BME280;15571;50.974;13.936;2023-02-27T02:07:02;101051.47;;;-1.61;100.00
28310;BME280;15571;50.974;13.936;2023-02-27T02:10:05;101050.63;;;-1.62;100.00
28310;BME280;15571;50.974;13.936;2023-02-27T02:13:11;101049.72;;;-1.62;100.00
28310;BME280;15571;50.974;13.936;2023-02-27T02:19:42;101058.91;;;-1.66;100.00
28310;BME280;15571;50.974;13.936;2023-02-27T02:26:22;101060.31;;;-1.71;100.00
28310;BME280;15571;50.974;13.936;2023-02-27T02:29:48;101059.25;;;-1.75;100.00
28310;BME280;15571;50.974;13.936;2023-02-27T02:42:59;101072.28;;;-1.72;100.00
28310;BME280;15571;50.974;13.936;2023-02-27T02:46:06;101075.84;;;-1.69;100.00
28310;BME280;15571;50.974;13.936;2023-02-27T02:49:13;101075.03;;;-1.68;100.00
28310;BME280;15571;50.974;13.936;2023-02-27T02:52:19;101076.00;;;-1.66;100.00
28310;BME280;15571;50.974;13.936;2023-02-27T02:55:25;101086.44;;;-1.63;100.00
28310;BME280;15571;50.974;13.936;2023-02-27T02:58:33;101077.88;;;-1.64;100.00
28310;BME280;15571;50.974;13.936;2023-02-27T03:01:38;101078.75;;;-1.63;100.00
28310;BME280;15571;50.974;13.936;2023-02-27T03:04:41;101078.75;;;-1.63;100.00
28310;BME280;15571;50.974;13.936;2023-02-27T03:07:50;101082.09;;;-1.64;100.00
28310;BME280;15571;50.974;13.936;2023-02-27T03:10:55;101083.88;;;-1.63;100.00
28310;BME280;15571;50.974;13.936;2023-02-27T03:14:00;101087.25;;;-1.64;100.00
28310;BME280;15571;50.974;13.936;2023-02-27T03:17:07;101081.50;;;-1.60;100.00
28310;BME280;15571;50.974;13.936;2023-02-27T03:20:13;101075.56;;;-1.59;100.00
28310;BME280;15571;50.974;13.936;2023-02-27T03:23:22;101080.06;;;-1.55;100.00
28310;BME280;15571;50.974;13.936;2023-02-27T03:26:27;101089.53;;;-1.54;100.00
28310;BME280;15571;50.974;13.936;2023-02-27T03:29:36;101092.31;;;-1.51;100.00
28310;BME280;15571;50.974;13.936;2023-02-27T03:32:41;101083.81;;;-1.50;100.00
28310;BME280;15571;50.974;13.936;2023-02-27T03:35:49;101091.50;;;-1.50;100.00
28310;BME280;15571;50.974;13.936;2023-02-27T03:38:53;101097.34;;;-1.52;100.00
28310;BME280;15571;50.974;13.936;2023-02-27T03:42:01;101103.38;;;-1.52;100.00
28310;BME280;15571;50.974;13.936;2023-02-27T03:45:44;101101.78;;;-1.50;100.00
28310;BME280;15571;50.974;13.936;2023-02-27T03:48:51;101100.00;;;-1.51;100.00
28310;BME280;15571;50.974;13.936;2023-02-27T03:51:54;101103.56;;;-1.49;100.00
28310;BME280;15571;50.974;13.936;2023-02-27T03:54:58;101103.69;;;-1.46;100.00
28310;BME280;15571;50.974;13.936;2023-02-27T03:58:02;101104.59;;;-1.45;100.00
28310;BME280;15571;50.974;13.936;2023-02-27T04:01:07;101117.72;;;-1.41;100.00
28310;BME280;15571;50.974;13.936;2023-02-27T04:04:10;101104.06;;;-1.39;100.00
28310;BME280;15571;50.974;13.936;2023-02-27T04:07:36;101100.78;;;-1.37;100.00
28310;BME280;15571;50.974;13.936;2023-02-27T04:14:09;101115.41;;;-1.36;100.00
28310;BME280;15571;50.974;13.936;2023-02-27T04:17:19;101103.63;;;-1.32;100.00
28310;BME280;15571;50.974;13.936;2023-02-27T04:20:28;101112.38;;;-1.29;100.00
28310;BME280;15571;50.974;13.936;2023-02-27T04:23:35;101114.22;;;-1.26;100.00
28310;BME280;15571;50.974;13.936;2023-02-27T04:26:41;101124.44;;;-1.28;100.00
28310;BME280;15571;50.974;13.936;2023-02-27T04:29:48;101128.50;;;-1.31;100.00
28310;BME280;15571;50.974;13.936;2023-02-27T04:32:59;101125.16;;;-1.30;100.00
28310;BME280;15571;50.974;13.936;2023-02-27T04:36:05;101117.44;;;-1.30;100.00
28310;BME280;15571;50.974;13.936;2023-02-27T04:39:10;101126.81;;;-1.31;100.00
28310;BME280;15571;50.974;13.936;2023-02-27T04:42:20;101131.00;;;-1.33;100.00
28310;BME280;15571;50.974;13.936;2023-02-27T04:45:24;101130.09;;;-1.33;100.00
28310;BME280;15571;50.974;13.936;2023-02-27T04:48:33;101124.97;;;-1.33;100.00
28310;BME280;15571;50.974;13.936;2023-02-27T04:51:37;101137.88;;;-1.32;100.00
28310;BME280;15571;50.974;13.936;2023-02-27T04:54:42;101133.84;;;-1.28;100.00
28310;BME280;15571;50.974;13.936;2023-02-27T04:57:47;101132.22;;;-1.26;100.00
28310;BME280;15571;50.974;13.936;2023-02-27T05:00:52;101137.34;;;-1.26;100.00
28310;BME280;15571;50.974;13.936;2023-02-27T05:03:57;101134.19;;;-1.22;100.00
28310;BME280;15571;50.974;13.936;2023-02-27T05:07:00;101134.19;;;-1.22;100.00
28310;BME280;15571;50.974;13.936;2023-02-27T05:10:04;101147.09;;;-1.20;100.00
28310;BME280;15571;50.974;13.936;2023-02-27T05:13:09;101148.78;;;-1.21;100.00
28310;BME280;15571;50.974;13.936;2023-02-27T05:16:15;101164.09;;;-1.22;100.00
28310;BME280;15571;50.974;13.936;2023-02-27T05:19:20;101167.22;;;-1.28;100.00
28310;BME280;15571;50.974;13.936;2023-02-27T05:22:25;101175.09;;;-1.40;100.00
28310;BME280;15571;50.974;13.936;2023-02-27T05:25:30;101188.53;;;-1.59;100.00
28310;BME280;15571;50.974;13.936;2023-02-27T05:28:36;101177.53;;;-1.72;100.00
28310;BME280;15571;50.974;13.936;2023-02-27T05:31:42;101177.53;;;-1.72;100.00
28310;BME280;15571;50.974;13.936;2023-02-27T05:34:51;101179.50;;;-1.67;100.00
28310;BME280;15571;50.974;13.936;2023-02-27T05:37:57;101173.94;;;-1.60;100.00
28310;BME280;15571;50.974;13.936;2023-02-27T05:41:04;101170.94;;;-1.53;100.00
28310;BME280;15571;50.974;13.936;2023-02-27T05:44:09;101171.38;;;-1.45;100.00
28310;BME280;15571;50.974;13.936;2023-02-27T05:47:14;101169.09;;;-1.41;100.00
28310;BME280;15571;50.974;13.936;2023-02-27T05:50:20;101171.84;;;-1.37;100.00
28310;BME280;15571;50.974;13.936;2023-02-27T05:53:24;101174.56;;;-1.34;100.00
28310;BME280;15571;50.974;13.936;2023-02-27T05:56:28;101184.03;;;-1.33;100.00
28310;BME280;15571;50.974;13.936;2023-02-27T05:59:33;101190.97;;;-1.32;100.00
28310;BME280;15571;50.974;13.936;2023-02-27T06:02:46;101198.59;;;-1.34;100.00
28310;BME280;15571;50.974;13.936;2023-02-27T06:05:50;101198.47;;;-1.35;100.00
28310;BME280;15571;50.974;13.936;2023-02-27T06:08:54;101204.25;;;-1.39;100.00
28310;BME280;15571;50.974;13.936;2023-02-27T06:11:56;101208.41;;;-1.42;100.00
28310;BME280;15571;50.974;13.936;2023-02-27T06:15:00;101204.25;;;-1.39;100.00
28310;BME280;15571;50.974;13.936;2023-02-27T06:18:02;101215.50;;;-1.37;100.00
28310;BME280;15571;50.974;13.936;2023-02-27T06:21:09;101208.41;;;-1.42;100.00
28310;BME280;15571;50.974;13.936;2023-02-27T06:24:10;101211.03;;;-1.40;100.00
28310;BME280;15571;50.974;13.936;2023-02-27T06:27:12;101217.25;;;-1.36;100.00
28310;BME280;15571;50.974;13.936;2023-02-27T06:30:14;101218.06;;;-1.37;100.00
28310;BME280;15571;50.974;13.936;2023-02-27T06:33:18;101218.88;;;-1.38;100.00
28310;BME280;15571;50.974;13.936;2023-02-27T06:36:21;101215.41;;;-1.39;100.00
28310;BME280;15571;50.974;13.936;2023-02-27T06:39:28;101221.50;;;-1.37;100.00
28310;BME280;15571;50.974;13.936;2023-02-27T06:42:32;101215.59;;;-1.36;100.00
28310;BME280;15571;50.974;13.936;2023-02-27T06:45:34;101213.28;;;-1.31;100.00
28310;BME280;15571;50.974;13.936;2023-02-27T06:48:36;101219.28;;;-1.31;100.00
28310;BME280;15571;50.974;13.936;2023-02-27T06:51:39;101222.94;;;-1.27;100.00
28310;BME280;15571;50.974;13.936;2023-02-27T06:54:42;101227.47;;;-1.23;100.00
28310;BME280;15571;50.974;13.936;2023-02-27T06:57:43;101218.88;;;-1.23;100.00
28310;BME280;15571;50.974;13.936;2023-02-27T07:00:46;101226.66;;;-1.22;100.00
28310;BME280;15571;50.974;13.936;2023-02-27T07:03:48;101232.69;;;-1.21;100.00
28310;BME280;15571;50.974;13.936;2023-02-27T07:06:51;101219.94;;;-1.20;100.00
28310;BME280;15571;50.974;13.936;2023-02-27T07:09:53;101231.09;;;-1.19;100.00
28310;BME280;15571;50.974;13.936;2023-02-27T07:12:55;101228.63;;;-1.18;100.00
28310;BME280;15571;50.974;13.936;2023-02-27T07:15:57;101234.72;;;-1.16;100.00
28310;BME280;15571;50.974;13.936;2023-02-27T07:19:00;101235.88;;;-1.11;100.00
28310;BME280;15571;50.974;13.936;2023-02-27T07:22:03;101221.72;;;-1.04;100.00
28310;BME280;15571;50.974;13.936;2023-02-27T07:25:06;101226.13;;;-1.01;100.00
28310;BME280;15571;50.974;13.936;2023-02-27T07:28:08;101221.88;;;-1.01;100.00
28310;BME280;15571;50.974;13.936;2023-02-27T07:31:10;101222.78;;;-1.00;100.00
28310;BME280;15571;50.974;13.936;2023-02-27T07:34:12;101224.72;;;-0.96;100.00
28310;BME280;15571;50.974;13.936;2023-02-27T07:37:21;101217.97;;;-0.94;100.00
28310;BME280;15571;50.974;13.936;2023-02-27T07:40:23;101225.06;;;-0.90;100.00
28310;BME280;15571;50.974;13.936;2023-02-27T07:43:25;101225.22;;;-0.87;100.00
28310;BME280;15571;50.974;13.936;2023-02-27T07:46:27;101229.84;;;-0.81;100.00
28310;BME280;15571;50.974;13.936;2023-02-27T07:49:29;101224.81;;;-0.80;100.00
28310;BME280;15571;50.974;13.936;2023-02-27T07:52:32;101225.22;;;-0.72;100.00
28310;BME280;15571;50.974;13.936;2023-02-27T07:55:35;101234.16;;;-0.65;100.00
28310;BME280;15571;50.974;13.936;2023-02-27T07:58:41;101231.06;;;-0.59;100.00
28310;BME280;15571;50.974;13.936;2023-02-27T08:01:44;101234.16;;;-0.65;100.00
28310;BME280;15571;50.974;13.936;2023-02-27T08:04:46;101239.75;;;-0.57;100.00
28310;BME280;15571;50.974;13.936;2023-02-27T08:07:49;101244.16;;;-0.55;100.00
28310;BME280;15571;50.974;13.936;2023-02-27T08:10:51;101250.47;;;-0.50;100.00
28310;BME280;15571;50.974;13.936;2023-02-27T08:13:55;101254.09;;;-0.46;100.00
28310;BME280;15571;50.974;13.936;2023-02-27T08:16:57;101253.56;;;-0.40;100.00
28310;BME280;15571;50.974;13.936;2023-02-27T08:19:59;101262.59;;;-0.32;100.00
28310;BME280;15571;50.974;13.936;2023-02-27T08:23:02;101264.69;;;-0.25;100.00
28310;BME280;15571;50.974;13.936;2023-02-27T08:26:04;101265.91;;;-0.18;100.00
28310;BME280;15571;50.974;13.936;2023-02-27T08:29:12;101264.41;;;-0.14;100.00
28310;BME280;15571;50.974;13.936;2023-02-27T08:32:16;101266.34;;;-0.10;100.00
28310;BME280;15571;50.974;13.936;2023-02-27T08:35:18;101263.19;;;-0.05;100.00
28310;BME280;15571;50.974;13.936;2023-02-27T08:38:22;101271.75;;;-0.06;100.00
28310;BME280;15571;50.974;13.936;2023-02-27T08:41:24;101265.88;;;-0.03;100.00
28310;BME280;15571;50.974;13.936;2023-02-27T08:44:26;101265.47;;;0.06;100.00
28310;BME280;15571;50.974;13.936;2023-02-27T08:47:27;101270.00;;;0.10;100.00
28310;BME280;15571;50.974;13.936;2023-02-27T08:50:29;101271.09;;;0.15;100.00
28310;BME280;15571;50.974;13.936;2023-02-27T08:53:34;101263.63;;;0.20;100.00
28310;BME280;15571;50.974;13.936;2023-02-27T08:56:36;101267.84;;;0.18;100.00
28310;BME280;15571;50.974;13.936;2023-02-27T08:59:38;101277.41;;;0.20;100.00
28310;BME280;15571;50.974;13.936;2023-02-27T09:02:40;101275.88;;;0.24;100.00
28310;BME280;15571;50.974;13.936;2023-02-27T09:05:42;101286.97;;;0.23;100.00
28310;BME280;15571;50.974;13.936;2023-02-27T09:08:45;101286.41;;;0.28;100.00
28310;BME280;15571;50.974;13.936;2023-02-27T09:11:47;101282.97;;;0.28;100.00
28310;BME280;15571;50.974;13.936;2023-02-27T09:14:49;101281.50;;;0.33;100.00
28310;BME280;15571;50.974;13.936;2023-02-27T09:17:54;101286.84;;;0.36;100.00
28310;BME280;15571;50.974;13.936;2023-02-27T09:21:04;101285.56;;;0.44;100.00
28310;BME280;15571;50.974;13.936;2023-02-27T09:24:08;101283.22;;;0.49;100.00
28310;BME280;15571;50.974;13.936;2023-02-27T09:27:09;101284.25;;;0.53;100.00
28310;BME280;15571;50.974;13.936;2023-02-27T09:30:14;101289.66;;;0.57;100.00
28310;BME280;15571;50.974;13.936;2023-02-27T09:33:17;101296.75;;;0.61;100.00
28310;BME280;15571;50.974;13.936;2023-02-27T09:36:19;101289.88;;;0.62;100.00
28310;BME280;15571;50.974;13.936;2023-02-27T09:39:22;101291.84;;;0.66;100.00
28310;BME280;15571;50.974;13.936;2023-02-27T09:42:24;101293.75;;;0.70;100.00
28310;BME280;15571;50.974;13.936;2023-02-27T09:45:27;101294.66;;;0.71;100.00
28310;BME280;15571;50.974;13.936;2023-02-27T09:48:31;101304.41;;;0.76;100.00
28310;BME280;15571;50.974;13.936;2023-02-27T09:51:35;101299.53;;;0.83;100.00
28310;BME280;15571;50.974;13.936;2023-02-27T09:54:38;101298.09;;;0.88;100.00
28310;BME280;15571;50.974;13.936;2023-02-27T09:57:42;101297.38;;;0.90;100.00
28310;BME280;15571;50.974;13.936;2023-02-27T10:00:47;101299.28;;;0.95;100.00
28310;BME280;15571;50.974;13.936;2023-02-27T10:07:11;101299.16;;;1.09;100.00
28310;BME280;15571;50.974;13.936;2023-02-27T10:10:19;101293.38;;;1.14;100.00
28310;BME280;15571;50.974;13.936;2023-02-27T10:13:31;101301.41;;;1.20;100.00
28310;BME280;15571;50.974;13.936;2023-02-27T10:16:37;101315.44;;;1.25;100.00
28310;BME280;15571;50.974;13.936;2023-02-27T10:19:44;101312.97;;;1.28;100.00
28310;BME280;15571;50.974;13.936;2023-02-27T10:22:47;101308.06;;;1.33;100.00
28310;BME280;15571;50.974;13.936;2023-02-27T10:25:53;101318.31;;;1.31;100.00
28310;BME280;15571;50.974;13.936;2023-02-27T10:28:56;101320.09;;;1.32;100.00
28310;BME280;15571;50.974;13.936;2023-02-27T10:32:00;101319.28;;;1.33;100.00
28310;BME280;15571;50.974;13.936;2023-02-27T10:35:06;101310.84;;;1.37;100.00
28310;BME280;15571;50.974;13.936;2023-02-27T10:38:11;101316.91;;;1.38;100.00
28310;BME280;15571;50.974;13.936;2023-02-27T10:41:16;101309.19;;;1.38;100.00
28310;BME280;15571;50.974;13.936;2023-02-27T10:44:19;101312.50;;;1.35;100.00
28310;BME280;15571;50.974;13.936;2023-02-27T10:47:21;101314.13;;;1.33;100.00
28310;BME280;15571;50.974;13.936;2023-02-27T10:50:24;101315.50;;;1.27;100.00
28310;BME280;15571;50.974;13.936;2023-02-27T10:53:29;101310.34;;;1.27;100.00
28310;BME280;15571;50.974;13.936;2023-02-27T10:56:32;101312.19;;;1.29;100.00
28310;BME280;15571;50.974;13.936;2023-02-27T10:59:35;101309.75;;;1.32;100.00
28310;BME280;15571;50.974;13.936;2023-02-27T11:02:39;101303.06;;;1.36;100.00
28310;BME280;15571;50.974;13.936;2023-02-27T11:05:42;101300.69;;;1.40;100.00
28310;BME280;15571;50.974;13.936;2023-02-27T11:12:17;101297.69;;;1.49;100.00
28310;BME280;15571;50.974;13.936;2023-02-27T11:15:21;101301.47;;;1.56;100.00
28310;BME280;15571;50.974;13.936;2023-02-27T11:18:24;101301.75;;;1.62;100.00
28310;BME280;15571;50.974;13.936;2023-02-27T11:21:28;101300.34;;;1.69;100.00
28310;BME280;15571;50.974;13.936;2023-02-27T11:24:33;101297.84;;;1.70;100.00
28310;BME280;15571;50.974;13.936;2023-02-27T11:27:37;101294.28;;;1.68;100.00
28310;BME280;15571;50.974;13.936;2023-02-27T11:30:41;101289.94;;;1.67;100.00
28310;BME280;15571;50.974;13.936;2023-02-27T11:33:47;101287.28;;;1.66;100.00
28310;BME280;15571;50.974;13.936;2023-02-27T11:36:53;101285.63;;;1.66;100.00
28310;BME280;15571;50.974;13.936;2023-02-27T11:39:59;101288.31;;;1.69;100.00
28310;BME280;15571;50.974;13.936;2023-02-27T11:43:14;101279.13;;;1.75;100.00
28310;BME280;15571;50.974;13.936;2023-02-27T11:46:18;101279.13;;;1.75;100.00
28310;BME280;15571;50.974;13.936;2023-02-27T11:49:25;101279.25;;;1.78;100.00
28310;BME280;15571;50.974;13.936;2023-02-27T11:52:29;101269.72;;;1.77;100.00
28310;BME280;15571;50.974;13.936;2023-02-27T11:55:34;101275.56;;;1.73;100.00
28310;BME280;15571;50.974;13.936;2023-02-27T11:58:42;101270.63;;;1.77;100.00
28310;BME280;15571;50.974;13.936;2023-02-27T12:01:47;101270.03;;;1.83;100.00
28310;BME280;15571;50.974;13.936;2023-02-27T12:04:52;101264.13;;;1.85;100.00
28310;BME280;15571;50.974;13.936;2023-02-27T12:07:56;101268.69;;;1.91;100.00
28310;BME280;15571;50.974;13.936;2023-02-27T12:11:03;101268.97;;;1.97;100.00
28310;BME280;15571;50.974;13.936;2023-02-27T12:14:10;101267.50;;;2.02;100.00
28310;BME280;15571;50.974;13.936;2023-02-27T12:17:19;101265.13;;;2.07;100.00
28310;BME280;15571;50.974;13.936;2023-02-27T12:20:28;101262.75;;;2.12;100.00
28310;BME280;15571;50.974;13.936;2023-02-27T12:23:34;101261.38;;;2.20;100.00
28310;BME280;15571;50.974;13.936;2023-02-27T12:26:39;101256.63;;;2.29;100.00
28310;BME280;15571;50.974;13.936;2023-02-27T12:29:46;101256.09;;;2.37;100.00
28310;BME280;15571;50.974;13.936;2023-02-27T12:32:51;101258.16;;;2.44;100.00
28310;BME280;15571;50.974;13.936;2023-02-27T12:35:56;101253.25;;;2.50;100.00
28310;BME280;15571;50.974;13.936;2023-02-27T12:38:58;101250.91;;;2.56;100.00
28310;BME280;15571;50.974;13.936;2023-02-27T12:42:14;101262.25;;;2.60;100.00
28310;BME280;15571;50.974;13.936;2023-02-27T12:45:28;101259.91;;;2.64;100.00
28310;BME280;15571;50.974;13.936;2023-02-27T12:48:39;101259.16;;;2.67;100.00
28310;BME280;15571;50.974;13.936;2023-02-27T12:51:48;101258.25;;;2.67;100.00
28310;BME280;15571;50.974;13.936;2023-02-27T12:54:54;101259.78;;;2.61;100.00
28310;BME280;15571;50.974;13.936;2023-02-27T13:01:29;101252.00;;;2.61;100.00
28310;BME280;15571;50.974;13.936;2023-02-27T13:04:39;101256.44;;;2.64;100.00
28310;BME280;15571;50.974;13.936;2023-02-27T13:07:46;101254.59;;;2.61;100.00
28310;BME280;15571;50.974;13.936;2023-02-27T13:10:54;101258.94;;;2.62;100.00
28310;BME280;15571;50.974;13.936;2023-02-27T13:14:01;101252.44;;;2.51;100.00
28310;BME280;15571;50.974;13.936;2023-02-27T13:17:11;101244.06;;;2.37;100.00
28310;BME280;15571;50.974;13.936;2023-02-27T13:20:25;101248.88;;;2.29;100.00
28310;BME280;15571;50.974;13.936;2023-02-27T13:23:32;101246.91;;;2.24;100.00
28310;BME280;15571;50.974;13.936;2023-02-27T13:26:36;101245.88;;;2.20;100.00
28310;BME280;15571;50.974;13.936;2023-02-27T13:29:41;101249.22;;;2.17;100.00
28310;BME280;15571;50.974;13.936;2023-02-27T13:32:51;101243.31;;;2.20;100.00
28310;BME280;15571;50.974;13.936;2023-02-27T13:35:57;101238.81;;;2.16;100.00
28310;BME280;15571;50.974;13.936;2023-02-27T13:39:16;101243.03;;;2.14;100.00
28310;BME280;15571;50.974;13.936;2023-02-27T13:45:48;101239.97;;;2.23;100.00
28310;BME280;15571;50.974;13.936;2023-02-27T13:48:53;101246.03;;;2.23;100.00
28310;BME280;15571;50.974;13.936;2023-02-27T13:51:55;101244.25;;;2.22;100.00
28310;BME280;15571;50.974;13.936;2023-02-27T13:54:59;101248.47;;;2.20;100.00
28310;BME280;15571;50.974;13.936;2023-02-27T13:58:03;101247.66;;;2.21;100.00
28310;BME280;15571;50.974;13.936;2023-02-27T14:01:13;101247.66;;;2.21;100.00
28310;BME280;15571;50.974;13.936;2023-02-27T14:04:17;101255.06;;;2.13;100.00
28310;BME280;15571;50.974;13.936;2023-02-27T14:07:21;101253.38;;;2.14;100.00
28310;BME280;15571;50.974;13.936;2023-02-27T14:10:25;101261.25;;;2.17;100.00
28310;BME280;15571;50.974;13.936;2023-02-27T14:16:53;101258.94;;;2.04;100.00
28310;BME280;15571;50.974;13.936;2023-02-27T14:19:57;101258.78;;;2.00;100.00
28310;BME280;15571;50.974;13.936;2023-02-27T14:23:14;101255.44;;;2.03;100.00
28310;BME280;15571;50.974;13.936;2023-02-27T14:26:20;101256.34;;;2.04;100.00
28310;BME280;15571;50.974;13.936;2023-02-27T14:29:24;101258.13;;;2.05;100.00
28310;BME280;15571;50.974;13.936;2023-02-27T14:32:32;101257.44;;;2.09;100.00
28310;BME280;15571;50.974;13.936;2023-02-27T14:35:38;101261.63;;;2.07;100.00
28310;BME280;15571;50.974;13.936;2023-02-27T14:38:43;101267.75;;;2.09;100.00
28310;BME280;15571;50.974;13.936;2023-02-27T14:41:46;101266.00;;;2.08;100.00
28310;BME280;15571;50.974;13.936;2023-02-27T14:44:51;101265.31;;;2.12;100.00
28310;BME280;15571;50.974;13.936;2023-02-27T14:47:54;101263.81;;;2.17;100.00
28310;BME280;15571;50.974;13.936;2023-02-27T14:51:02;101272.25;;;2.13;100.00
28310;BME280;15571;50.974;13.936;2023-02-27T14:54:05;101269.38;;;2.07;100.00
28310;BME280;15571;50.974;13.936;2023-02-27T14:57:13;101274.69;;;2.10;100.00
28310;BME280;15571;50.974;13.936;2023-02-27T15:00:27;101280.41;;;2.02;100.00
28310;BME280;15571;50.974;13.936;2023-02-27T15:03:34;101279.44;;;2.00;100.00
28310;BME280;15571;50.974;13.936;2023-02-27T15:06:42;101287.78;;;1.95;100.00
28310;BME280;15571;50.974;13.936;2023-02-27T15:09:45;101285.94;;;1.92;100.00
28310;BME280;15571;50.974;13.936;2023-02-27T15:12:49;101292.78;;;1.92;100.00
28310;BME280;15571;50.974;13.936;2023-02-27T15:19:15;101295.47;;;1.93;100.00
28310;BME280;15571;50.974;13.936;2023-02-27T15:22:20;101292.69;;;1.89;100.00
28310;BME280;15571;50.974;13.936;2023-02-27T15:25:32;101292.53;;;1.85;100.00
28310;BME280;15571;50.974;13.936;2023-02-27T15:28:39;101300.09;;;1.82;100.00
28310;BME280;15571;50.974;13.936;2023-02-27T15:31:43;101299.88;;;1.78;100.00
28310;BME280;15571;50.974;13.936;2023-02-27T15:34:53;101303.38;;;1.78;100.00
28310;BME280;15571;50.974;13.936;2023-02-27T15:37:58;101296.66;;;1.82;100.00
28310;BME280;15571;50.974;13.936;2023-02-27T15:41:02;101301.00;;;1.83;100.00
28310;BME280;15571;50.974;13.936;2023-02-27T15:44:06;101295.16;;;1.87;100.00
28310;BME280;15571;50.974;13.936;2023-02-27T15:47:08;101301.88;;;1.83;100.00
28310;BME280;15571;50.974;13.936;2023-02-27T15:50:21;101297.91;;;1.90;100.00
28310;BME280;15571;50.974;13.936;2023-02-27T15:53:27;101314.19;;;1.89;100.00
28310;BME280;15571;50.974;13.936;2023-02-27T15:56:30;101307.41;;;1.91;100.00
28310;BME280;15571;50.974;13.936;2023-02-27T15:59:34;101317.53;;;1.86;100.00
28310;BME280;15571;50.974;13.936;2023-02-27T16:02:39;101322.31;;;1.79;100.00
28310;BME280;15571;50.974;13.936;2023-02-27T16:05:42;101320.31;;;1.73;100.00
28310;BME280;15571;50.974;13.936;2023-02-27T16:08:49;101322.84;;;1.71;100.00
28310;BME280;15571;50.974;13.936;2023-02-27T16:15:16;101335.53;;;1.67;100.00
28310;BME280;15571;50.974;13.936;2023-02-27T16:18:22;101331.81;;;1.62;100.00
28310;BME280;15571;50.974;13.936;2023-02-27T16:21:28;101338.63;;;1.60;100.00
28310;BME280;15571;50.974;13.936;2023-02-27T16:24:32;101331.81;;;1.62;100.00
28310;BME280;15571;50.974;13.936;2023-02-27T16:27:34;101342.31;;;1.65;100.00
28310;BME280;15571;50.974;13.936;2023-02-27T16:30:37;101339.66;;;1.63;100.00
28310;BME280;15571;50.974;13.936;2023-02-27T16:33:40;101343.03;;;1.62;100.00